Time;durP1;ratioP1;P1;durP2;ratioP2;P2;SDS_P1;SDS_P2;PMS_P1;PMS_P2;Temp;Humidity;BMP_temperature;BMP_pressure;BME280_temperature;BME280_humidity;BME280_pressure;Samples;Min_cycle;Max_cycle;Signal;HPM_P1;HPM_P2
2023/02/11 00:05:03;;;;;;;30.88;18.08;;;;;;;0.54;65.81;99480.66;10475474;28;20060;-73
2023/02/11 00:10:24;;;;;;;30.25;17.20;;;;;;;0.64;65.17;99468.25;10475967;28;20471;-73
2023/02/11 00:15:45;;;;;;;34.10;18.90;;;;;;;0.67;65.83;99452.78;10476287;28;20483;-73
2023/02/11 00:21:10;;;;;;;35.20;19.98;;;;;;;0.71;65.77;99456.09;10475663;28;20040;-73
2023/02/11 00:26:32;;;;;;;37.40;19.48;;;;;;;0.69;65.49;99447.59;10489602;28;20173;-74
2023/02/11 00:31:54;;;;;;;34.72;19.48;;;;;;;0.68;65.83;99455.06;10473582;28;20102;-73
2023/02/11 00:37:16;;;;;;;35.63;19.48;;;;;;;0.63;65.75;99433.78;10475366;28;20044;-73
2023/02/11 00:42:39;;;;;;;37.83;21.30;;;;;;;0.59;65.84;99427.75;10475008;28;20044;-73
2023/02/11 00:48:00;;;;;;;37.58;21.10;;;;;;;0.56;66.53;99431.47;10474458;28;20086;-73
2023/02/11 00:53:21;;;;;;;37.75;21.55;;;;;;;0.58;66.29;99426.25;10474274;28;20048;-73
2023/02/11 00:58:42;;;;;;;37.50;20.98;;;;;;;0.62;66.62;99410.28;10487918;28;20044;-73
2023/02/11 01:04:03;;;;;;;36.58;19.63;;;;;;;0.66;66.60;99394.31;10459687;28;20517;-74
2023/02/11 01:09:25;;;;;;;34.55;19.77;;;;;;;0.78;66.25;99378.69;10473645;28;20143;-73
2023/02/11 01:14:46;;;;;;;37.40;20.63;;;;;;;0.83;66.74;99372.47;10473398;28;20055;-73
2023/02/11 01:20:08;;;;;;;36.10;20.00;;;;;;;0.87;66.43;99370.25;10473029;28;20048;-74
2023/02/11 01:25:29;;;;;;;38.25;21.20;;;;;;;0.90;66.32;99380.28;10472949;28;20102;-74
2023/02/11 01:30:51;;;;;;;34.22;19.42;;;;;;;0.96;66.57;99375.53;10472696;28;20577;-73
2023/02/11 01:36:12;;;;;;;35.72;20.48;;;;;;;0.97;66.20;99359.81;10486157;28;20037;-73
2023/02/11 01:41:33;;;;;;;33.65;19.02;;;;;;;0.93;66.42;99353.78;10472230;28;20368;-73
2023/02/11 01:46:54;;;;;;;33.95;19.17;;;;;;;0.93;66.43;99340.03;10485334;28;20051;-73
2023/02/11 01:52:25;;;;;;;37.92;20.35;;;;;;;0.92;66.74;99342.03;10485494;28;20052;-73
2023/02/11 01:57:48;;;;;;;33.42;19.55;;;;;;;1.00;66.62;99350.59;10485531;28;20044;-73
2023/02/11 02:03:11;;;;;;;36.03;20.65;;;;;;;1.03;66.57;99344.09;10471585;28;20083;-73
2023/02/11 02:09:02;;;;;;;36.47;19.87;;;;;;;1.05;66.51;99341.59;10485575;28;20040;-73
2023/02/11 02:14:22;;;;;;;40.05;22.63;;;;;;;1.06;66.09;99327.38;10498609;28;20375;-74
2023/02/11 02:19:57;;;;;;;36.67;19.85;;;;;;;1.06;66.53;99307.34;10471281;28;20040;-73
2023/02/11 02:25:35;;;;;;;34.17;20.17;;;;;;;1.01;66.69;99295.09;10485267;28;20047;-73
2023/02/11 02:31:21;;;;;;;36.53;19.92;;;;;;;1.02;66.23;99287.59;10484481;28;20045;-74
2023/02/11 02:36:46;;;;;;;35.28;20.35;;;;;;;1.11;66.35;99290.13;10497608;28;20049;-73
2023/02/11 02:42:07;;;;;;;35.03;20.27;;;;;;;1.22;66.46;99286.69;10483984;28;20632;-73
2023/02/11 02:47:28;;;;;;;37.42;20.05;;;;;;;1.26;66.44;99290.72;10456054;28;20090;-73
2023/02/11 02:52:57;;;;;;;34.47;21.00;;;;;;;1.33;66.29;99303.22;10497698;28;20048;-74
2023/02/11 02:58:52;;;;;;;35.60;19.83;;;;;;;1.38;65.70;99306.00;10483203;28;20044;-73
2023/02/11 03:04:20;;;;;;;;;;;;;;;1.41;65.59;99290.50;10497693;28;20478;-73
2023/02/11 03:09:49;;;;;;;32.30;18.98;;;;;;;1.43;65.51;99283.25;10497186;28;19920;-74
2023/02/11 03:15:10;;;;;;;35.10;20.05;;;;;;;1.48;65.78;99272.78;10484095;28;20044;-73
2023/02/11 03:20:32;;;;;;;33.45;18.65;;;;;;;1.51;66.11;99271.78;10483072;28;20521;-73
2023/02/11 03:26:02;;;;;;;32.83;18.55;;;;;;;1.57;65.64;99267.03;10469193;28;20506;-74
2023/02/11 03:31:30;;;;;;;34.53;18.65;;;;;;;1.58;65.84;99261.03;10469479;28;20071;-73
2023/02/11 03:36:54;;;;;;;32.60;18.60;;;;;;;1.63;65.24;99259.53;10482392;28;20070;-74
2023/02/11 03:42:15;;;;;;;32.78;19.23;;;;;;;1.67;65.58;99246.28;10469343;28;20049;-73
2023/02/11 03:47:38;;;;;;;34.42;18.60;;;;;;;1.66;65.30;99247.53;10468396;28;20047;-73
2023/02/11 03:53:00;;;;;;;31.92;18.55;;;;;;;1.67;65.28;99238.78;10482249;28;20418;-73
2023/02/11 03:58:21;;;;;;;32.08;18.33;;;;;;;1.63;65.09;99234.75;10481398;28;20048;-74
2023/02/11 04:03:42;;;;;;;30.60;18.02;;;;;;;1.59;65.15;99228.75;10454458;28;20063;-73
2023/02/11 04:09:02;;;;;;;31.30;18.02;;;;;;;1.49;65.28;99230.25;10482855;28;20039;-73
2023/02/11 04:14:23;;;;;;;34.60;19.80;;;;;;;1.43;65.77;99199.94;10508854;28;20044;-74
2023/02/11 04:19:44;;;;;;;33.85;18.25;;;;;;;1.52;65.34;99196.97;10505331;28;20090;-73
2023/02/11 04:25:06;;;;;;;35.08;19.17;;;;;;;1.61;65.20;99182.22;10492401;28;20401;-74
2023/02/11 04:30:27;;;;;;;31.13;17.60;;;;;;;1.68;64.79;99182.47;10514168;28;20032;-74
2023/02/11 04:35:48;;;;;;;30.20;17.50;;;;;;;1.73;65.05;99195.47;10492264;28;20040;-74
2023/02/11 04:41:10;;;;;;;30.10;17.88;;;;;;;1.78;64.77;99190.50;10479109;28;20406;-73
2023/02/11 04:46:31;;;;;;;29.52;17.40;;;;;;;1.84;64.83;99183.75;10494054;28;20045;-74
2023/02/11 04:51:52;;;;;;;33.72;19.45;;;;;;;1.82;64.98;99153.19;10506991;28;20036;-74
2023/02/11 04:57:13;;;;;;;35.83;19.25;;;;;;;1.77;65.24;99140.19;10500064;28;20110;-74
2023/02/11 05:02:34;;;;;;;31.13;17.92;;;;;;;1.78;65.04;99152.69;10493816;28;20057;-74
2023/02/11 05:07:56;;;;;;;31.17;17.15;;;;;;;1.79;64.83;99134.16;10477294;28;20122;-74
2023/02/11 05:13:16;;;;;;;31.48;18.85;;;;;;;1.79;65.07;99132.16;10536718;28;20048;-74
2023/02/11 05:18:38;;;;;;;32.75;18.33;;;;;;;1.77;65.10;99134.66;10513374;28;20051;-74
2023/02/11 05:23:58;;;;;;;32.20;18.65;;;;;;;1.79;64.94;99126.66;10526919;28;20482;-73
2023/02/11 05:29:19;;;;;;;31.88;17.52;;;;;;;1.80;65.37;99146.69;10526785;28;20071;-73
2023/02/11 05:34:40;;;;;;;34.15;18.65;;;;;;;1.81;65.09;99134.41;10513117;28;20043;-73
2023/02/11 05:40:01;;;;;;;32.85;17.40;;;;;;;1.77;65.39;99142.94;10512960;28;20398;-73
2023/02/11 05:45:22;;;;;;;29.98;17.30;;;;;;;1.78;65.68;99146.44;10512183;28;20383;-73
2023/02/11 05:50:43;;;;;;;29.50;16.13;;;;;;;1.85;65.35;99143.19;10503726;28;20036;-73
2023/02/11 05:56:04;;;;;;;25.50;15.80;;;;;;;1.87;65.05;99154.44;10497720;28;20409;-73
2023/02/11 06:01:26;;;;;;;31.05;16.85;;;;;;;1.97;65.33;99148.16;10512212;28;20045;-73
2023/02/11 06:06:47;;;;;;;29.30;17.50;;;;;;;2.06;64.97;99133.38;10511967;28;20044;-73
2023/02/11 06:12:08;;;;;;;30.52;17.35;;;;;;;2.14;64.78;99119.84;10497961;28;20043;-73
2023/02/11 06:17:32;;;;;;;28.35;16.27;;;;;;;2.19;64.98;99132.84;10510518;28;20044;-73
2023/02/11 06:22:54;;;;;;;29.70;16.10;;;;;;;2.17;64.79;99127.09;10525949;28;20048;-73
2023/02/11 06:28:14;;;;;;;30.05;16.00;;;;;;;2.21;64.83;99138.59;10512336;28;20040;-74
2023/02/11 06:33:35;;;;;;;31.85;17.17;;;;;;;2.25;64.80;99150.88;10507508;28;20040;-73
2023/02/11 06:38:56;;;;;;;31.98;17.10;;;;;;;2.35;64.96;99148.59;10510939;28;20048;-73
2023/02/11 06:44:17;;;;;;;28.20;16.63;;;;;;;2.41;64.56;99146.56;10509857;28;20044;-73
2023/02/11 06:49:39;;;;;;;27.60;16.38;;;;;;;2.52;64.82;99160.34;10495787;28;20536;-73
2023/02/11 06:55:00;;;;;;;26.48;15.95;;;;;;;2.59;64.71;99146.00;10502043;28;20093;-73
2023/02/11 07:00:20;;;;;;;28.05;15.25;;;;;;;2.68;63.90;99156.00;10489148;28;20470;-73
2023/02/11 07:05:41;;;;;;;31.17;17.08;;;;;;;2.73;64.13;99149.75;10509676;28;20049;-74
2023/02/11 07:11:16;;;;;;;29.02;16.27;;;;;;;2.82;64.37;99157.72;10524122;28;20037;-73
2023/02/11 07:16:37;;;;;;;29.92;16.63;;;;;;;2.92;63.65;99160.94;10508132;28;20044;-74
2023/02/11 07:21:58;;;;;;;31.65;17.17;;;;;;;2.91;63.71;99153.94;10507624;28;20036;-74
2023/02/11 07:27:19;;;;;;;35.05;16.73;;;;;;;2.89;63.80;99167.44;10520065;28;20520;-73
2023/02/11 07:32:40;;;;;;;28.08;15.93;;;;;;;2.99;63.36;99163.16;10455092;28;20051;-76
2023/02/11 07:38:01;;;;;;;31.55;15.48;;;;;;;3.03;64.04;99160.88;10468746;28;20055;-75
2023/02/11 07:43:22;;;;;;;28.98;16.15;;;;;;;3.23;63.24;99159.03;10473259;28;20421;-76
2023/02/11 07:48:42;;;;;;;27.85;17.33;;;;;;;3.44;62.95;99160.88;10476589;28;20040;-75
2023/02/11 07:54:03;;;;;;;28.00;16.55;;;;;;;3.47;63.03;99164.63;10476776;28;20045;-75
2023/02/11 07:59:28;;;;;;;29.10;16.00;;;;;;;3.51;62.62;99167.88;10477950;28;20106;-76
2023/02/11 08:04:49;;;;;;;25.75;15.60;;;;;;;3.66;62.78;99175.78;10490482;28;20055;-76
2023/02/11 08:10:10;;;;;;;25.85;15.40;;;;;;;3.84;62.17;99168.88;10495479;28;20043;-75
2023/02/11 08:15:31;;;;;;;28.80;16.40;;;;;;;4.05;61.50;99163.66;10520348;28;20105;-76
2023/02/11 08:20:52;;;;;;;27.02;15.30;;;;;;;4.22;61.74;99178.09;10527892;28;20397;-76
2023/02/11 08:26:33;;;;;;;27.08;15.25;;;;;;;4.39;60.37;99169.63;10527279;28;20074;-76
2023/02/11 08:31:54;;;;;;;29.05;16.10;;;;;;;4.96;60.85;99176.03;10510153;28;20048;-76
2023/02/11 08:37:16;;;;;;;26.35;15.38;;;;;;;5.19;59.97;99174.47;10516413;28;20051;-76
2023/02/11 08:42:37;;;;;;;27.63;15.43;;;;;;;5.60;59.26;99151.97;10530212;28;20044;-77
2023/02/11 08:47:58;;;;;;;26.35;15.90;;;;;;;7.60;56.70;99162.50;10541470;28;20036;-76
2023/02/11 08:53:19;;;;;;;25.40;16.08;;;;;;;7.03;53.70;99170.59;10528562;28;20120;-75
2023/02/11 08:58:41;;;;;;;29.85;16.30;;;;;;;6.82;54.38;99169.75;10530038;28;20044;-75
2023/02/11 09:04:02;;;;;;;25.65;15.52;;;;;;;7.87;53.92;99165.19;10543461;28;20059;-75
2023/02/11 09:09:24;;;;;;;25.05;16.08;;;;;;;7.97;52.50;99161.38;10529106;28;20105;-77
2023/02/11 09:14:45;;;;;;;26.42;16.55;;;;;;;7.56;51.76;99159.34;10529089;28;20101;-75
2023/02/11 09:20:07;;;;;;;28.65;18.08;;;;;;;7.21;52.90;99162.66;10528818;28;20044;-75
2023/02/11 09:25:30;;;;;;;24.13;15.32;;;;;;;7.11;52.44;99163.09;10515664;28;20043;-75
2023/02/11 09:30:52;;;;;;;26.42;17.17;;;;;;;7.29;51.55;99152.38;10528996;28;20044;-75
2023/02/11 09:36:15;;;;;;;28.92;19.38;;;;;;;7.97;50.20;99169.72;10528003;28;20112;-75
2023/02/11 09:42:02;;;;;;;25.48;15.25;;;;;;;8.62;49.40;99177.47;10513977;28;20065;-75
2023/02/11 09:47:24;;;;;;;28.00;16.90;;;;;;;9.06;48.13;99148.34;10522453;28;20558;-75
2023/02/11 09:53:10;;;;;;;24.98;15.98;;;;;;;8.90;48.53;99163.50;10528115;28;20040;-75
2023/02/11 09:58:35;;;;;;;26.65;16.30;;;;;;;8.70;48.68;99172.69;10541319;28;20039;-74
2023/02/11 10:04:15;;;;;;;22.63;15.57;;;;;;;9.28;47.87;99185.22;10540725;28;20052;-75
2023/02/11 10:09:54;;;;;;;26.92;16.42;;;;;;;8.42;47.60;99212.38;10527363;28;20093;-75
2023/02/11 10:15:37;;;;;;;23.58;15.65;;;;;;;7.67;49.12;99213.91;10540724;28;20040;-75
2023/02/11 10:21:39;;;;;;;25.33;15.02;;;;;;;7.24;50.41;99198.44;10526471;28;20440;-75
2023/02/11 10:27:05;;;;;;;27.73;16.52;;;;;;;7.25;50.86;99171.41;10534761;28;20051;-75
2023/02/11 10:32:38;;;;;;;27.05;17.13;;;;;;;7.52;50.19;99158.91;10492953;28;20047;-75
2023/02/11 10:37:59;;;;;;;29.08;16.45;;;;;;;7.54;50.49;99150.06;10511065;28;20032;-75
2023/02/11 10:43:24;;;;;;;26.10;17.08;;;;;;;7.24;51.35;99142.88;10522228;28;20066;-75
2023/02/11 10:48:51;;;;;;;26.25;15.85;;;;;;;7.03;52.20;99125.41;10505962;28;20043;-75
2023/02/11 10:54:19;;;;;;;24.40;16.25;;;;;;;8.01;51.58;99119.34;10503825;28;20435;-75
2023/02/11 10:59:42;;;;;;;25.83;16.48;;;;;;;8.62;49.60;99108.63;10513521;28;20435;-74
2023/02/11 11:05:27;;;;;;;23.00;15.73;;;;;;;7.89;50.27;99120.88;10488396;28;20056;-74
2023/02/11 11:11:02;;;;;;;27.63;16.00;;;;;;;7.37;51.45;99130.97;10479231;28;20062;-74
2023/02/11 11:16:31;;;;;;;26.88;16.67;;;;;;;7.66;52.29;99110.34;10502189;28;20044;-74
2023/02/11 11:21:52;;;;;;;24.65;16.02;;;;;;;8.09;51.23;99119.38;10505108;28;20395;-74
2023/02/11 11:27:23;;;;;;;24.27;15.40;;;;;;;7.98;51.58;99126.72;10516539;28;20048;-74
2023/02/11 11:32:44;;;;;;;26.27;16.25;;;;;;;7.96;51.58;99142.47;10494010;28;20086;-74
2023/02/11 11:38:05;;;;;;;27.15;16.02;;;;;;;7.45;52.13;99142.94;10515026;28;20041;-73
2023/02/11 11:43:26;;;;;;;24.38;14.45;;;;;;;6.95;53.44;99132.91;10501085;28;20044;-73
2023/02/11 11:48:47;;;;;;;26.70;15.55;;;;;;;6.68;53.99;99110.75;10486741;28;20045;-73
2023/02/11 11:54:11;;;;;;;25.90;14.70;;;;;;;6.95;54.53;99116.25;10501211;28;20037;-73
2023/02/11 11:59:32;;;;;;;23.08;15.32;;;;;;;7.42;54.32;99130.84;10509334;28;20040;-73
2023/02/11 12:05:28;;;;;;;23.85;14.90;;;;;;;8.09;53.33;99127.72;10501276;28;20060;-73
2023/02/11 12:10:49;;;;;;;22.85;14.70;;;;;;;8.07;52.98;99127.53;10477960;28;20477;-76
2023/02/11 12:16:34;;;;;;;23.30;15.13;;;;;;;8.47;52.69;99114.09;10494536;28;20383;-76
2023/02/11 12:22:01;;;;;;;21.85;14.15;;;;;;;8.14;52.59;99090.69;10484450;28;20521;-75
2023/02/11 12:27:31;;;;;;;23.63;14.77;;;;;;;7.70;52.71;99082.19;10482325;28;20049;-75
2023/02/11 12:33:14;;;;;;;23.42;14.98;;;;;;;7.39;53.91;99098.59;10502974;28;20036;-75
2023/02/11 12:38:50;;;;;;;23.33;14.82;;;;;;;7.02;54.99;99113.56;10488660;28;20044;-77
2023/02/11 12:44:41;;;;;;;22.05;15.13;;;;;;;6.89;55.09;99108.78;10502500;28;20086;-75
2023/02/11 12:50:23;;;;;;;23.20;14.27;;;;;;;6.69;56.32;99103.19;10488122;28;20044;-75
2023/02/11 12:55:45;;;;;;;24.30;14.98;;;;;;;6.58;56.59;99091.03;10521056;28;20040;-77
2023/02/11 13:01:30;;;;;;;22.77;14.45;;;;;;;6.58;57.30;99093.06;10496100;28;20044;-75
2023/02/11 13:06:58;;;;;;;23.65;14.27;;;;;;;6.69;57.02;99086.53;10491179;28;20394;-75
2023/02/11 13:18:28;;;;;;;23.50;14.27;;;;;;;7.59;56.10;99074.88;10503642;28;20102;-73
2023/02/11 13:24:12;;;;;;;22.17;15.40;;;;;;;7.99;55.54;99083.72;10489206;28;20044;-73
2023/02/11 13:29:51;;;;;;;26.27;14.10;;;;;;;8.38;54.68;99075.63;10486721;28;20402;-73
2023/02/11 13:35:31;;;;;;;21.55;13.75;;;;;;;8.36;54.63;99083.78;10514723;28;20036;-73
2023/02/11 13:41:02;;;;;;;19.50;12.88;;;;;;;7.80;54.77;99096.34;10485838;28;20154;-74
2023/02/11 13:46:23;;;;;;;18.98;13.20;;;;;;;7.46;55.66;99080.50;10486060;28;20071;-73
2023/02/11 13:51:45;;;;;;;19.10;12.50;;;;;;;7.37;55.95;99083.75;10486034;28;20103;-74
2023/02/11 13:57:20;;;;;;;21.23;13.38;;;;;;;7.30;56.43;99110.16;10499821;28;20067;-74
2023/02/11 14:14:04;;;;;;;21.20;13.40;;;;;;;7.07;56.86;99095.31;10501954;28;20067;-74
2023/02/11 14:19:31;;;;;;;21.25;13.00;;;;;;;7.01;57.21;99098.19;10484978;28;20098;-72
2023/02/11 14:24:59;;;;;;;21.88;13.32;;;;;;;6.79;58.01;99071.66;10498227;28;20040;-74
2023/02/11 14:30:55;;;;;;;20.10;12.98;;;;;;;6.68;57.99;99094.13;10484558;28;20041;-72
2023/02/11 14:36:42;;;;;;;22.67;14.73;;;;;;;6.58;58.30;99091.03;10495361;28;20110;-72
2023/02/11 14:42:03;;;;;;;21.35;13.50;;;;;;;6.43;58.48;99084.53;10497666;28;20041;-72
2023/02/11 14:47:34;;;;;;;22.73;14.35;;;;;;;6.30;58.87;99088.81;10483593;28;20387;-72
2023/02/11 14:52:55;;;;;;;24.15;14.32;;;;;;;6.31;58.61;99086.78;10496541;28;20041;-72
2023/02/11 14:58:21;;;;;;;25.08;14.93;;;;;;;6.21;59.13;99094.03;10497389;28;20048;-72
2023/02/11 15:03:42;;;;;;;23.35;14.90;;;;;;;6.00;59.79;99080.81;10497372;28;20044;-73
2023/02/11 15:09:12;;;;;;;25.33;15.07;;;;;;;5.94;60.27;99093.25;10482982;28;20047;-72
2023/02/11 15:14:33;;;;;;;24.58;14.02;;;;;;;5.82;61.34;99084.38;10483305;28;20483;-76
2023/02/11 15:19:56;;;;;;;23.00;13.85;;;;;;;5.76;60.96;99094.78;10469694;28;20390;-76
2023/02/11 15:25:18;;;;;;;24.25;13.50;;;;;;;5.67;61.73;99092.44;10483609;28;20086;-76
2023/02/11 15:30:39;;;;;;;24.58;14.88;;;;;;;5.66;61.23;99090.94;10497272;28;20047;-76
2023/02/11 15:36:03;;;;;;;20.85;13.52;;;;;;;5.58;62.18;99082.50;10483128;28;20041;-76
2023/02/11 15:41:34;;;;;;;24.20;13.93;;;;;;;5.57;63.11;99083.03;10482843;28;20049;-75
2023/02/11 15:46:55;;;;;;;23.00;13.77;;;;;;;5.55;62.95;99082.81;10497281;28;20082;-75
2023/02/11 15:52:22;;;;;;;24.65;14.27;;;;;;;5.58;63.13;99078.97;10497257;28;20086;-78
2023/02/11 15:57:52;;;;;;;24.15;14.35;;;;;;;5.57;63.45;99088.56;10482312;28;20056;-78
2023/02/11 16:03:24;;;;;;;24.23;13.68;;;;;;;5.57;63.47;99099.66;10498599;28;20056;-76
2023/02/11 16:08:59;;;;;;;21.77;12.98;;;;;;;5.59;63.84;99110.94;10503855;28;20510;-75
2023/02/11 16:14:26;;;;;;;20.67;13.30;;;;;;;5.59;64.02;99111.69;10503599;28;20052;-76
2023/02/11 16:19:48;;;;;;;21.10;12.10;;;;;;;5.58;63.82;99117.75;10503478;28;20368;-76
2023/02/11 16:25:16;;;;;;;20.80;13.30;;;;;;;5.56;64.10;99123.81;10489645;28;20040;-77
2023/02/11 16:30:39;;;;;;;21.08;13.18;;;;;;;5.51;64.08;99123.94;10531938;28;20455;-75
2023/02/11 16:36:01;;;;;;;21.25;13.07;;;;;;;5.50;65.13;99131.50;10530982;28;20070;-74
2023/02/11 16:41:22;;;;;;;19.08;11.18;;;;;;;5.51;65.04;99126.69;10517033;28;20040;-74
2023/02/11 16:46:43;;;;;;;18.85;11.98;;;;;;;5.56;65.08;99153.56;10516200;28;20040;-75
2023/02/11 16:52:05;;;;;;;19.83;12.35;;;;;;;5.56;65.09;99150.78;10530369;28;20043;-74
2023/02/11 16:57:28;;;;;;;22.50;12.77;;;;;;;5.56;65.63;99153.56;10529952;28;20052;-73
2023/02/11 17:02:50;;;;;;;20.92;11.88;;;;;;;5.55;65.75;99160.38;10515842;28;20048;-73
2023/02/11 17:08:11;;;;;;;17.35;11.77;;;;;;;5.54;65.77;99158.88;10529345;28;20043;-74
2023/02/11 17:13:32;;;;;;;18.90;11.60;;;;;;;5.57;65.57;99157.81;10514563;28;20044;-73
2023/02/11 17:18:53;;;;;;;17.55;11.20;;;;;;;5.54;65.96;99150.56;10501285;28;20086;-73
2023/02/11 17:24:14;;;;;;;19.83;12.43;;;;;;;5.56;65.96;99161.84;10514759;28;20535;-73
2023/02/11 17:29:35;;;;;;;17.90;11.40;;;;;;;5.53;66.28;99171.22;10514533;28;20086;-73
2023/02/11 17:34:56;;;;;;;18.08;10.77;;;;;;;5.52;66.25;99166.97;10514552;28;20047;-73
2023/02/11 17:40:17;;;;;;;18.50;11.40;;;;;;;5.55;66.72;99174.22;10514362;28;20040;-75
2023/02/11 17:45:41;;;;;;;18.65;11.48;;;;;;;5.54;66.98;99189.34;10513992;28;20387;-77
2023/02/11 17:51:02;;;;;;;17.58;11.77;;;;;;;5.56;66.77;99195.09;10513825;28;20044;-74
2023/02/11 17:56:23;;;;;;;17.63;11.90;;;;;;;5.54;67.33;99178.25;10505300;28;20060;-75
2023/02/11 18:01:44;;;;;;;20.77;11.50;;;;;;;5.55;67.30;99188.06;10485562;28;20052;-75
2023/02/11 18:07:05;;;;;;;19.73;12.80;;;;;;;5.57;67.48;99185.50;10485603;28;20052;-76
2023/02/11 18:12:26;;;;;;;18.20;11.10;;;;;;;5.56;67.37;99187.53;10485015;28;20094;-75
2023/02/11 18:17:47;;;;;;;17.52;11.13;;;;;;;5.60;67.85;99196.31;10485003;28;20154;-75
2023/02/11 18:23:10;;;;;;;16.42;11.40;;;;;;;5.60;67.91;99190.03;10470657;28;20087;-76
2023/02/11 18:28:32;;;;;;;14.85;10.32;;;;;;;5.62;67.88;99193.00;10470445;28;20051;-74
2023/02/11 18:33:53;;;;;;;16.98;10.65;;;;;;;5.59;68.18;99200.31;10484359;28;20051;-75
2023/02/11 18:39:13;;;;;;;16.45;10.15;;;;;;;5.62;68.00;99213.16;10470022;28;20056;-73
2023/02/11 18:44:34;;;;;;;15.07;9.88;;;;;;;5.63;68.62;99217.41;10484236;28;20052;-74
2023/02/11 18:49:55;;;;;;;17.13;9.77;;;;;;;5.63;68.41;99222.94;10469958;28;20471;-73
2023/02/11 18:55:16;;;;;;;14.73;9.38;;;;;;;5.70;68.54;99238.22;10469633;28;20068;-74
2023/02/11 19:00:38;;;;;;;15.07;9.85;;;;;;;5.70;68.43;99238.97;10469450;28;20052;-73
2023/02/11 19:05:59;;;;;;;15.32;9.38;;;;;;;5.73;68.59;99242.72;10455504;28;20056;-76
2023/02/11 19:11:45;;;;;;;17.10;10.38;;;;;;;5.72;68.64;99243.97;10469557;28;20048;-76
2023/02/11 19:17:03;;;;;;;13.68;8.57;;;;;;;5.69;69.23;99247.78;10474451;28;20070;-75
2023/02/11 19:22:25;;;;;;;17.25;10.27;;;;;;;5.67;69.70;99245.53;10469389;28;20119;-76
2023/02/11 19:27:46;;;;;;;16.00;9.90;;;;;;;5.68;69.43;99252.56;10496941;28;20047;-78
2023/02/11 19:33:07;;;;;;;15.43;10.05;;;;;;;5.70;69.79;99255.59;10482995;28;20048;-77
2023/02/11 19:38:30;;;;;;;14.95;10.00;;;;;;;5.68;70.25;99277.50;10472359;28;20040;-77
2023/02/11 19:43:55;;;;;;;15.45;9.80;;;;;;;5.71;70.05;99279.25;10504804;28;20045;-77
2023/02/11 19:49:21;;;;;;;18.02;10.93;;;;;;;5.69;70.15;99286.56;10478308;28;20044;-77
2023/02/11 19:54:42;;;;;;;16.88;10.20;;;;;;;5.67;70.85;99278.03;10504481;28;20041;-76
2023/02/11 20:00:04;;;;;;;18.23;11.30;;;;;;;5.62;71.88;99276.88;10476671;28;20044;-76
2023/02/11 20:05:31;;;;;;;18.05;11.18;;;;;;;5.56;71.87;99281.72;10477734;28;20487;-76
2023/02/11 20:10:52;;;;;;;17.27;11.15;;;;;;;5.51;72.25;99279.03;10476104;28;20055;-77
2023/02/11 20:16:17;;;;;;;16.40;10.43;;;;;;;5.45;72.64;99293.69;10461797;28;20044;-76
2023/02/11 20:21:39;;;;;;;18.92;11.27;;;;;;;5.47;72.91;99287.63;10476413;28;20051;-76
2023/02/11 20:27:00;;;;;;;21.58;12.05;;;;;;;5.47;72.31;99288.38;10503591;28;20044;-77
2023/02/11 20:32:21;;;;;;;18.95;11.45;;;;;;;5.47;72.45;99305.00;10503113;28;20052;-75
2023/02/11 20:37:42;;;;;;;20.83;12.10;;;;;;;5.49;71.96;99298.19;10474952;28;20051;-76
2023/02/11 20:43:04;;;;;;;17.38;11.20;;;;;;;5.50;72.31;99292.13;10474835;28;20040;-76
2023/02/11 20:48:25;;;;;;;17.50;11.27;;;;;;;5.55;72.15;99296.84;10460829;28;20052;-76
2023/02/11 20:53:49;;;;;;;20.50;11.35;;;;;;;5.56;72.27;99301.09;10488416;28;20044;-76
2023/02/11 20:59:10;;;;;;;20.23;11.43;;;;;;;5.51;72.33;99288.09;10474777;28;20045;-75
2023/02/11 21:04:31;;;;;;;16.67;9.75;;;;;;;5.49;71.94;99281.56;10487444;28;20048;-75
2023/02/11 21:09:53;;;;;;;16.27;10.93;;;;;;;5.50;72.62;99299.66;10460303;28;20048;-75
2023/02/11 21:15:14;;;;;;;16.33;10.20;;;;;;;5.52;72.60;99311.00;10459867;28;20040;-75
2023/02/11 21:20:35;;;;;;;16.23;10.43;;;;;;;5.50;72.71;99314.28;10487352;28;20471;-74
2023/02/11 21:25:56;;;;;;;17.08;11.60;;;;;;;5.52;72.68;99320.06;10487012;28;20157;-74
2023/02/11 21:31:23;;;;;;;15.93;9.60;;;;;;;5.49;72.70;99323.84;10459487;28;20111;-75
2023/02/11 21:36:45;;;;;;;16.70;10.55;;;;;;;5.51;72.76;99337.19;10486822;28;20050;-76
2023/02/11 21:42:06;;;;;;;17.33;10.95;;;;;;;5.50;73.14;99346.75;10472842;28;20453;-75
2023/02/11 21:47:27;;;;;;;17.98;11.00;;;;;;;5.49;73.69;99346.00;10507288;28;20060;-75
2023/02/11 21:52:48;;;;;;;16.48;10.75;;;;;;;5.50;73.37;99342.00;10510953;28;20053;-76
2023/02/11 21:58:09;;;;;;;16.67;10.05;;;;;;;5.50;73.44;99353.06;10527840;28;20072;-76
2023/02/11 22:03:30;;;;;;;16.67;10.40;;;;;;;5.47;73.69;99360.38;10526871;28;20081;-75
2023/02/11 22:08:51;;;;;;;15.63;9.43;;;;;;;5.52;74.37;99360.84;10526969;28;20044;-76
2023/02/11 22:14:12;;;;;;;15.43;10.02;;;;;;;5.49;74.15;99382.00;10540990;28;20040;-76
2023/02/11 22:19:33;;;;;;;17.88;10.98;;;;;;;5.49;74.18;99375.72;10525732;28;20040;-76
2023/02/11 22:24:54;;;;;;;15.80;9.82;;;;;;;5.49;74.42;99382.00;10539275;28;20485;-75
2023/02/11 22:30:15;;;;;;;16.38;10.07;;;;;;;5.50;74.59;99380.78;10524101;28;20486;-75
2023/02/11 22:35:36;;;;;;;17.33;10.45;;;;;;;5.50;74.83;99380.00;10525940;28;20089;-76
2023/02/11 22:40:58;;;;;;;17.08;10.30;;;;;;;5.48;74.67;99383.28;10539040;28;20473;-76
2023/02/11 22:46:19;;;;;;;15.25;9.80;;;;;;;5.51;74.63;99387.81;10523024;28;20048;-75
2023/02/11 22:51:40;;;;;;;18.17;10.45;;;;;;;5.50;74.64;99400.16;10539310;28;20122;-75
2023/02/11 22:57:01;;;;;;;17.13;10.10;;;;;;;5.50;74.33;99410.47;10539524;28;20043;-75
2023/02/11 23:02:22;;;;;;;17.35;10.73;;;;;;;5.43;74.99;99398.72;10556280;22;20056;-75
2023/02/11 23:07:43;;;;;;;16.90;10.82;;;;;;;5.43;74.63;99395.94;10497271;28;20489;-76
2023/02/11 23:13:04;;;;;;;15.90;10.02;;;;;;;5.42;74.71;99413.09;10482576;28;20048;-75
2023/02/11 23:18:25;;;;;;;15.35;9.82;;;;;;;5.44;74.89;99427.91;10469227;28;20045;-76
2023/02/11 23:23:46;;;;;;;16.08;10.25;;;;;;;5.42;74.90;99419.38;10455446;28;20041;-75
2023/02/11 23:29:07;;;;;;;16.42;9.77;;;;;;;5.40;74.64;99416.38;10469114;28;20102;-75
2023/02/11 23:34:28;;;;;;;15.50;9.75;;;;;;;5.40;74.99;99418.38;10454957;28;20082;-76
2023/02/11 23:39:49;;;;;;;14.65;8.52;;;;;;;5.45;74.90;99423.88;10468523;28;20048;-76
2023/02/11 23:45:10;;;;;;;14.35;8.55;;;;;;;5.50;74.47;99424.31;10441136;28;20048;-76
2023/02/11 23:50:31;;;;;;;14.45;9.23;;;;;;;5.45;75.05;99428.66;10455003;28;20481;-76
2023/02/11 23:55:52;;;;;;;17.00;9.88;;;;;;;5.43;74.55;99417.34;10454736;28;20050;-76
